createdAt,value
2022-09-15T00:03:48.179Z,96238.91
2022-09-15T00:08:53.804Z,96249.59
2022-09-15T00:14:00.762Z,96260.19
2022-09-15T00:19:05.999Z,96253.66
2022-09-15T00:24:11.640Z,96265.59
2022-09-15T00:29:15.539Z,96269.00
2022-09-15T00:34:19.627Z,96268.94
2022-09-15T00:39:24.916Z,96262.91
2022-09-15T00:44:48.130Z,96256.94
2022-09-15T00:49:59.217Z,96272.50
2022-09-15T00:55:08.451Z,96267.19
2022-09-15T01:00:16.434Z,96268.09
2022-09-15T01:05:23.678Z,96254.31
2022-09-15T01:10:30.984Z,96263.13
2022-09-15T01:15:50.819Z,96276.31
2022-09-15T01:21:10.229Z,96283.78
2022-09-15T01:26:58.780Z,96278.59
2022-09-15T01:32:27.327Z,96277.50
2022-09-15T01:37:37.324Z,96269.78
2022-09-15T01:42:44.613Z,96275.56
2022-09-15T01:47:53.887Z,96270.31
2022-09-15T01:53:00.749Z,96273.28
2022-09-15T01:58:04.873Z,96268.84
2022-09-15T02:03:17.531Z,96256.72
2022-09-15T02:08:30.192Z,96266.38
2022-09-15T02:13:49.103Z,96269.88
2022-09-15T02:19:05.173Z,96271.50
2022-09-15T02:24:14.212Z,96268.03
2022-09-15T02:29:21.406Z,96265.56
2022-09-15T02:34:30.651Z,96271.44
2022-09-15T02:39:38.152Z,96266.81
2022-09-15T02:44:42.433Z,96261.31
2022-09-15T02:49:47.642Z,96263.78
2022-09-15T02:54:51.754Z,96267.47
2022-09-15T03:00:14.559Z,96260.75
2022-09-15T03:05:22.409Z,96265.69
2022-09-15T03:10:27.290Z,96274.81
2022-09-15T03:15:31.183Z,96279.47
2022-09-15T03:20:36.953Z,96283.78
2022-09-15T03:25:40.797Z,96271.75
2022-09-15T03:30:44.646Z,96279.72
2022-09-15T03:35:50.546Z,96282.78
2022-09-15T03:40:59.026Z,96281.47
2022-09-15T03:46:03.265Z,96290.31
2022-09-15T03:51:10.673Z,96284.13
2022-09-15T03:56:23.534Z,96280.91
2022-09-15T04:01:27.562Z,96280.91
2022-09-15T04:06:32.873Z,96275.88
2022-09-15T04:11:38.142Z,96290.84
2022-09-15T04:16:42.628Z,96299.56
2022-09-15T04:21:49.038Z,96300.09
2022-09-15T04:26:53.657Z,96296.59
2022-09-15T04:31:58.615Z,96304.47
2022-09-15T04:37:03.976Z,96303.53
2022-09-15T04:42:08.974Z,96301.19
2022-09-15T04:47:13.246Z,96304.53
2022-09-15T04:52:18.576Z,96315.47
2022-09-15T04:57:22.452Z,96325.00
2022-09-15T05:02:26.331Z,96324.31
2022-09-15T05:07:31.505Z,96320.50
2022-09-15T05:12:35.260Z,96321.19
2022-09-15T05:17:39.016Z,96331.88
2022-09-15T05:22:44.330Z,96335.91
2022-09-15T05:27:48.203Z,96332.13
2022-09-15T05:32:51.802Z,96334.38
2022-09-15T05:37:57.188Z,96337.94
2022-09-15T05:43:01.163Z,96343.19
2022-09-15T05:48:05.607Z,96345.72
2022-09-15T05:53:10.695Z,96349.19
2022-09-15T05:58:15.152Z,96349.38
2022-09-15T06:03:19.003Z,96354.63
2022-09-15T06:08:27.007Z,96354.34
2022-09-15T06:13:30.825Z,96359.75
2022-09-15T06:18:36.277Z,96367.19
2022-09-15T06:23:43.336Z,96359.75
2022-09-15T06:28:54.562Z,96360.44
2022-09-15T06:33:59.044Z,96362.22
2022-09-15T06:39:04.231Z,96363.38
2022-09-15T06:44:08.197Z,96371.63
2022-09-15T06:49:11.987Z,96384.69
2022-09-15T06:54:17.181Z,96389.88
2022-09-15T06:59:21.106Z,96388.78
2022-09-15T07:04:25.024Z,96392.44
2022-09-15T07:09:30.320Z,96392.91
2022-09-15T07:14:34.082Z,96385.78
2022-09-15T07:19:38.648Z,96395.94
2022-09-15T07:24:43.978Z,96413.03
2022-09-15T07:29:47.780Z,96412.06
2022-09-15T07:34:56.501Z,96419.47
2022-09-15T07:40:04.110Z,96416.56
2022-09-15T07:45:09.043Z,96422.69
2022-09-15T07:50:14.513Z,96429.09
2022-09-15T07:55:19.724Z,96432.22
2022-09-15T08:00:23.348Z,96437.28
2022-09-15T08:05:29.256Z,96445.00
2022-09-15T08:10:34.401Z,96432.47
2022-09-15T08:15:38.886Z,96448.47
2022-09-15T08:20:43.429Z,96451.72
2022-09-15T08:25:48.385Z,96449.06
2022-09-15T08:30:59.936Z,96443.34
2022-09-15T08:36:05.863Z,96456.06
2022-09-15T08:41:15.841Z,96463.44
2022-09-15T08:46:25.238Z,96468.09
2022-09-15T08:51:36.153Z,96473.66
2022-09-15T08:56:43.319Z,96470.09
2022-09-15T09:02:04.458Z,96476.38
2022-09-15T09:07:21.675Z,96475.41
2022-09-15T09:12:42.835Z,96482.63
2022-09-15T09:18:14.731Z,96495.28
2022-09-15T09:23:24.212Z,96485.91
2022-09-15T09:28:38.232Z,96486.19
2022-09-15T09:33:47.954Z,96485.25
2022-09-15T09:38:53.195Z,96489.50
2022-09-15T09:43:58.379Z,96487.09
2022-09-15T09:49:06.267Z,96479.09
2022-09-15T09:54:16.480Z,96491.19
2022-09-15T09:59:35.960Z,96494.81
2022-09-15T10:04:40.143Z,96483.59
2022-09-15T10:09:52.690Z,96475.97
2022-09-15T10:15:00.875Z,96470.19
2022-09-15T10:20:08.264Z,96475.38
2022-09-15T10:25:49.408Z,96485.19
2022-09-15T10:31:06.533Z,96474.69
2022-09-15T10:36:15.845Z,96466.38
2022-09-15T10:41:25.382Z,96463.72
2022-09-15T10:46:42.031Z,96469.41
2022-09-15T10:51:57.351Z,96472.38
2022-09-15T10:57:12.666Z,96470.03
2022-09-15T11:02:56.937Z,96471.81
2022-09-15T11:08:18.532Z,96468.25
2022-09-15T11:13:29.774Z,96465.34
2022-09-15T11:18:54.880Z,96464.72
2022-09-15T11:24:17.369Z,96467.44
2022-09-15T11:29:26.168Z,96461.56
2022-09-15T11:34:35.513Z,96465.25
2022-09-15T11:39:46.895Z,96474.59
2022-09-15T11:44:51.199Z,96455.19
2022-09-15T11:50:01.309Z,96455.78
2022-09-15T11:55:16.295Z,96463.84
2022-09-15T12:00:21.420Z,96464.38
2022-09-15T12:05:32.356Z,96461.25
2022-09-15T12:10:43.747Z,96447.09
2022-09-15T12:15:49.069Z,96463.22
2022-09-15T12:21:02.956Z,96464.81
2022-09-15T12:26:15.541Z,96467.44
2022-09-15T12:31:39.826Z,96466.00
2022-09-15T12:36:48.026Z,96475.06
2022-09-15T12:41:53.329Z,96479.94
2022-09-15T12:47:00.031Z,96475.63
2022-09-15T12:52:08.314Z,96490.53
2022-09-15T12:57:22.537Z,96497.94
2022-09-15T13:02:46.717Z,96509.63
2022-09-15T13:07:59.349Z,96516.97
2022-09-15T13:13:32.666Z,96521.44
2022-09-15T13:18:39.292Z,96520.34
2022-09-15T13:23:50.117Z,96516.38
2022-09-15T13:28:56.563Z,96511.69
2022-09-15T13:35:09.300Z,96527.50
2022-09-15T13:40:45.856Z,96516.66
2022-09-15T13:46:06.680Z,96514.72
2022-09-15T13:51:21.277Z,96514.25
2022-09-15T13:56:29.228Z,96504.31
2022-09-15T14:01:38.797Z,96504.75
2022-09-15T14:06:46.415Z,96503.72
2022-09-15T14:11:54.185Z,96493.09
2022-09-15T14:17:01.332Z,96496.06
2022-09-15T14:22:26.822Z,96487.00
2022-09-15T14:27:35.388Z,96484.22
2022-09-15T14:32:45.425Z,96482.91
2022-09-15T14:37:51.625Z,96492.53
2022-09-15T14:42:58.046Z,96489.78
2022-09-15T14:48:03.278Z,96492.66
2022-09-15T14:53:09.390Z,96492.78
2022-09-15T14:58:20.233Z,96495.03
2022-09-15T15:03:34.265Z,96489.19
2022-09-15T15:08:44.164Z,96495.56
2022-09-15T15:13:53.987Z,96487.22
2022-09-15T15:18:58.913Z,96486.97
2022-09-15T15:24:09.252Z,96484.53
2022-09-15T15:29:43.194Z,96501.81
2022-09-15T15:34:51.636Z,96499.59
2022-09-15T15:39:56.530Z,96496.63
2022-09-15T15:45:04.837Z,96489.00
2022-09-15T15:50:16.021Z,96489.41
2022-09-15T15:55:22.829Z,96485.84
2022-09-15T16:00:33.428Z,96495.13
2022-09-15T16:05:39.176Z,96489.44
2022-09-15T16:10:47.250Z,96496.91
2022-09-15T16:15:54.453Z,96501.16
2022-09-15T16:20:58.454Z,96498.22
2022-09-15T16:26:03.870Z,96500.34
2022-09-15T16:31:12.850Z,96502.72
2022-09-15T16:36:19.017Z,96504.13
2022-09-15T16:41:25.916Z,96507.06
2022-09-15T16:46:33.444Z,96513.13
2022-09-15T16:51:37.624Z,96511.63
2022-09-15T16:56:43.409Z,96517.97
2022-09-15T17:01:49.754Z,96516.41
2022-09-15T17:06:53.985Z,96509.44
2022-09-15T17:11:57.721Z,96523.84
2022-09-15T17:17:03.059Z,96521.19
2022-09-15T17:22:06.902Z,96533.63
2022-09-15T17:27:10.740Z,96533.69
2022-09-15T17:32:16.043Z,96526.22
2022-09-15T17:37:20.296Z,96527.72
2022-09-15T17:42:25.590Z,96533.44
2022-09-15T17:47:34.518Z,96535.97
2022-09-15T17:52:40.962Z,96525.81
2022-09-15T17:57:45.766Z,96528.81
2022-09-15T18:02:53.105Z,96530.50
2022-09-15T18:07:58.152Z,96531.69
2022-09-15T18:13:02.512Z,96532.63
2022-09-15T18:18:08.740Z,96541.25
2022-09-15T18:23:17.544Z,96535.75
2022-09-15T18:28:23.808Z,96536.88
2022-09-15T18:33:29.491Z,96544.09
2022-09-15T18:38:33.107Z,96539.75
2022-09-15T18:43:36.762Z,96545.31
2022-09-15T18:48:46.400Z,96553.47
2022-09-15T18:53:54.394Z,96544.03
2022-09-15T18:58:58.591Z,96564.75
2022-09-15T19:04:03.862Z,96563.28
2022-09-15T19:09:07.414Z,96562.03
2022-09-15T19:14:11.952Z,96565.41
2022-09-15T19:19:16.802Z,96578.75
2022-09-15T19:24:20.685Z,96583.44
2022-09-15T19:29:24.696Z,96586.63
2022-09-15T19:34:31.375Z,96583.44
2022-09-15T19:39:35.726Z,96588.00
2022-09-15T19:44:39.478Z,96595.91
2022-09-15T19:49:45.079Z,96603.38
2022-09-15T19:54:55.315Z,96606.38
2022-09-15T19:59:58.848Z,96599.56
2022-09-15T20:05:03.746Z,96605.63
2022-09-15T20:10:10.163Z,96608.91
2022-09-15T20:15:13.695Z,96606.78
2022-09-15T20:20:18.661Z,96612.09
2022-09-15T20:25:24.052Z,96616.22
2022-09-15T20:30:27.692Z,96619.75
2022-09-15T20:35:34.477Z,96606.91
2022-09-15T20:40:38.001Z,96604.28
2022-09-15T20:45:41.462Z,96605.47
2022-09-15T20:50:46.584Z,96610.94
2022-09-15T20:55:51.004Z,96613.09
2022-09-15T21:01:03.881Z,96621.50
2022-09-15T21:06:14.140Z,96620.50
2022-09-15T21:11:20.721Z,96624.97
2022-09-15T21:16:26.706Z,96628.94
2022-09-15T21:21:33.889Z,96632.69
2022-09-15T21:26:59.999Z,96636.06
2022-09-15T21:32:04.072Z,96644.09
2022-09-15T21:37:09.853Z,96642.84
2022-09-15T21:42:13.386Z,96647.63
2022-09-15T21:47:17.044Z,96635.34
2022-09-15T21:52:22.035Z,96630.66
2022-09-15T21:57:25.607Z,96630.72
2022-09-15T22:02:29.402Z,96613.53
2022-09-15T22:07:34.291Z,96632.47
2022-09-15T22:12:37.850Z,96640.06
2022-09-15T22:17:41.292Z,96657.66
2022-09-15T22:22:46.136Z,96663.91
2022-09-15T22:27:49.694Z,96664.56
2022-09-15T22:32:54.348Z,96657.59
2022-09-15T22:37:59.153Z,96664.88
2022-09-15T22:43:02.525Z,96649.88
2022-09-15T22:48:06.281Z,96659.66
2022-09-15T22:53:13.354Z,96654.72
2022-09-15T22:58:17.235Z,96659.44
2022-09-15T23:03:20.937Z,96662.38
2022-09-15T23:08:25.782Z,96645.94
2022-09-15T23:13:29.204Z,96640.34
2022-09-15T23:18:32.765Z,96649.84
2022-09-15T23:23:39.375Z,96645.41
2022-09-15T23:28:43.150Z,96657.88
2022-09-15T23:33:47.708Z,96645.25
2022-09-15T23:38:52.653Z,96641.25
2022-09-15T23:43:57.020Z,96644.88
2022-09-15T23:49:00.842Z,96640.34
2022-09-15T23:54:06.431Z,96650.69
2022-09-15T23:59:09.892Z,96650.56
